createdAt,value
2022-08-19T00:00:25.415Z,1009.01
2022-08-19T00:01:30.340Z,1008.97
2022-08-19T00:02:26.359Z,1009.00
2022-08-19T00:03:25.346Z,1009.00
2022-08-19T00:04:25.432Z,1009.05
2022-08-19T00:05:25.304Z,1009.03
2022-08-19T00:06:25.362Z,1009.08
2022-08-19T00:07:25.340Z,1008.99
2022-08-19T00:08:25.307Z,1009.05
2022-08-19T00:09:25.262Z,1009.07
2022-08-19T00:10:25.256Z,1009.04
2022-08-19T00:11:25.987Z,1009.06
2022-08-19T00:12:25.239Z,1009.09
2022-08-19T00:13:25.280Z,1009.06
2022-08-19T00:14:25.207Z,1009.09
2022-08-19T00:15:25.221Z,1009.12
2022-08-19T00:16:26.448Z,1009.15
2022-08-19T00:17:25.171Z,1009.10
2022-08-19T00:18:25.191Z,1009.07
2022-08-19T00:19:25.155Z,1009.10
2022-08-19T00:20:25.156Z,1009.08
2022-08-19T00:21:25.174Z,1009.08
2022-08-19T00:22:25.130Z,1009.08
2022-08-19T00:23:25.109Z,1009.09
2022-08-19T00:24:25.130Z,1009.09
2022-08-19T00:25:30.270Z,1009.10
2022-08-19T00:26:26.111Z,1009.04
2022-08-19T00:27:26.839Z,1009.04
2022-08-19T00:28:25.063Z,1009.03
2022-08-19T00:29:25.045Z,1009.06
2022-08-19T00:30:25.033Z,1009.03
2022-08-19T00:31:25.023Z,1009.10
2022-08-19T00:32:25.036Z,1009.09
2022-08-19T00:33:25.012Z,1008.99
2022-08-19T00:34:25.025Z,1008.97
2022-08-19T00:35:24.975Z,1009.01
2022-08-19T00:36:24.974Z,1009.03
2022-08-19T00:37:24.968Z,1009.02
2022-08-19T00:38:35.114Z,1009.02
2022-08-19T00:39:25.946Z,1009.02
2022-08-19T00:40:24.937Z,1009.03
2022-08-19T00:41:24.909Z,1009.03
2022-08-19T00:42:24.977Z,1009.02
2022-08-19T00:43:24.900Z,1008.99
2022-08-19T00:44:26.817Z,1009.02
2022-08-19T00:45:24.860Z,1008.97
2022-08-19T00:46:24.853Z,1008.99
2022-08-19T00:47:24.841Z,1009.01
2022-08-19T00:48:24.881Z,1008.97
2022-08-19T00:49:24.846Z,1008.95
2022-08-19T00:50:24.857Z,1008.97
2022-08-19T00:51:24.801Z,1008.94
2022-08-19T00:52:24.805Z,1008.97
2022-08-19T00:53:24.789Z,1008.96
2022-08-19T00:54:31.039Z,1008.98
2022-08-19T00:55:25.752Z,1008.96
2022-08-19T00:56:24.754Z,1008.92
2022-08-19T00:57:24.753Z,1008.93
2022-08-19T00:58:24.716Z,1008.90
2022-08-19T00:59:56.208Z,1008.90
2022-08-19T01:00:25.755Z,1008.91
2022-08-19T01:01:24.786Z,1008.91
2022-08-19T01:02:24.685Z,1008.92
2022-08-19T01:03:24.675Z,1008.92
2022-08-19T01:04:24.668Z,1008.95
2022-08-19T01:05:24.674Z,1008.90
2022-08-19T01:06:24.665Z,1008.95
2022-08-19T01:07:24.638Z,1008.90
2022-08-19T01:08:24.646Z,1008.90
2022-08-19T01:09:24.601Z,1008.91
2022-08-19T01:10:24.617Z,1008.90
2022-08-19T01:11:24.653Z,1008.90
2022-08-19T01:12:24.568Z,1008.89
2022-08-19T01:13:24.612Z,1008.89
2022-08-19T01:14:24.582Z,1008.92
2022-08-19T01:15:24.552Z,1008.95
2022-08-19T01:16:24.531Z,1009.02
2022-08-19T01:17:24.559Z,1008.94
2022-08-19T01:18:24.514Z,1008.99
2022-08-19T01:19:24.491Z,1009.05
2022-08-19T01:20:24.506Z,1009.07
2022-08-19T01:21:24.483Z,1009.11
2022-08-19T01:22:30.071Z,1009.05
2022-08-19T01:23:25.452Z,1009.04
2022-08-19T01:24:24.492Z,1009.06
2022-08-19T01:25:25.113Z,1009.01
2022-08-19T01:26:24.438Z,1009.08
2022-08-19T01:27:24.420Z,1009.10
2022-08-19T01:28:34.158Z,1009.06
2022-08-19T01:29:25.420Z,1009.05
2022-08-19T01:30:24.396Z,1009.05
2022-08-19T01:31:26.831Z,1009.04
2022-08-19T01:32:33.713Z,1009.02
2022-08-19T01:33:25.402Z,1008.99
2022-08-19T01:34:24.363Z,1009.01
2022-08-19T01:35:24.364Z,1008.98
2022-08-19T01:36:24.330Z,1009.01
2022-08-19T01:37:24.952Z,1008.97
2022-08-19T01:38:24.322Z,1008.96
2022-08-19T01:39:24.298Z,1008.96
2022-08-19T01:40:24.280Z,1008.96
2022-08-19T01:41:24.262Z,1008.89
2022-08-19T01:42:30.166Z,1008.93
2022-08-19T01:43:25.260Z,1008.92
2022-08-19T01:44:24.259Z,1008.92
2022-08-19T01:45:24.265Z,1008.96
2022-08-19T01:46:25.133Z,1008.97
2022-08-19T01:47:24.185Z,1008.94
2022-08-19T01:48:24.188Z,1008.97
2022-08-19T01:49:24.166Z,1009.00
2022-08-19T01:50:24.188Z,1008.95
2022-08-19T01:51:25.103Z,1008.91
2022-08-19T01:52:24.140Z,1008.95
2022-08-19T01:53:24.134Z,1009.00
2022-08-19T01:54:27.535Z,1008.99
2022-08-19T01:55:24.107Z,1008.97
2022-08-19T01:56:24.096Z,1008.98
2022-08-19T01:57:24.085Z,1009.01
2022-08-19T01:58:24.081Z,1009.01
2022-08-19T01:59:25.044Z,1009.05
2022-08-19T02:00:24.048Z,1009.03
2022-08-19T02:01:24.096Z,1009.04
2022-08-19T02:02:24.021Z,1009.03
2022-08-19T02:03:24.021Z,1009.01
2022-08-19T02:04:24.028Z,1009.00
2022-08-19T02:05:25.000Z,1009.04
2022-08-19T02:06:26.998Z,1009.04
2022-08-19T02:07:23.979Z,1008.98
2022-08-19T02:08:23.990Z,1008.97
2022-08-19T02:09:23.954Z,1008.97
2022-08-19T02:10:23.966Z,1009.01
2022-08-19T02:11:24.078Z,1008.94
2022-08-19T02:12:23.906Z,1008.94
2022-08-19T02:13:26.386Z,1008.89
2022-08-19T02:14:23.892Z,1008.85
2022-08-19T02:15:23.890Z,1008.89
2022-08-19T02:16:23.894Z,1008.85
2022-08-19T02:17:23.863Z,1008.89
2022-08-19T02:18:27.819Z,1008.85
2022-08-19T02:19:23.833Z,1008.85
2022-08-19T02:20:23.851Z,1008.84
2022-08-19T02:21:23.811Z,1008.81
2022-08-19T02:22:23.804Z,1008.91
2022-08-19T02:23:23.807Z,1008.83
2022-08-19T02:24:23.914Z,1008.90
2022-08-19T02:25:23.809Z,1009.00
2022-08-19T02:26:23.761Z,1008.95
2022-08-19T02:27:23.762Z,1009.03
2022-08-19T02:28:23.752Z,1009.04
2022-08-19T02:29:24.704Z,1009.03
2022-08-19T02:30:23.764Z,1009.07
2022-08-19T02:31:23.698Z,1009.04
2022-08-19T02:32:23.697Z,1009.03
2022-08-19T02:33:23.693Z,1009.02
2022-08-19T02:34:23.717Z,1009.07
2022-08-19T02:35:23.678Z,1009.06
2022-08-19T02:36:23.704Z,1009.06
2022-08-19T02:37:23.646Z,1009.07
2022-08-19T02:38:23.636Z,1009.09
2022-08-19T02:39:23.612Z,1009.05
2022-08-19T02:40:23.603Z,1009.05
2022-08-19T02:41:23.771Z,1009.00
2022-08-19T02:42:23.616Z,1008.99
2022-08-19T02:43:23.566Z,1009.00
2022-08-19T02:44:30.900Z,1008.98
2022-08-19T02:45:29.757Z,1009.02
2022-08-19T02:46:23.579Z,1008.97
2022-08-19T02:47:23.531Z,1009.00
2022-08-19T02:48:23.508Z,1009.00
2022-08-19T02:49:23.509Z,1009.00
2022-08-19T02:50:23.488Z,1009.06
2022-08-19T02:51:23.488Z,1009.05
2022-08-19T02:52:23.540Z,1009.06
2022-08-19T02:53:23.473Z,1009.12
2022-08-19T02:54:23.456Z,1009.13
2022-08-19T02:55:23.451Z,1009.09
2022-08-19T02:56:24.415Z,1009.13
2022-08-19T02:57:23.436Z,1009.15
2022-08-19T02:58:23.405Z,1009.15
2022-08-19T02:59:23.407Z,1009.14
2022-08-19T03:00:23.383Z,1009.12
2022-08-19T03:01:23.464Z,1009.14
2022-08-19T03:02:23.381Z,1009.14
2022-08-19T03:03:23.404Z,1009.18
2022-08-19T03:04:23.372Z,1009.13
2022-08-19T03:05:47.136Z,1009.14
2022-08-19T03:06:24.339Z,1009.14
2022-08-19T03:07:24.296Z,1009.15
2022-08-19T03:08:23.306Z,1009.18
2022-08-19T03:09:23.287Z,1009.18
2022-08-19T03:10:23.296Z,1009.13
2022-08-19T03:11:23.305Z,1009.11
2022-08-19T03:12:23.309Z,1009.12
2022-08-19T03:13:23.254Z,1009.10
2022-08-19T03:14:23.216Z,1009.11
2022-08-19T03:15:23.231Z,1009.04
2022-08-19T03:16:23.238Z,1009.03
2022-08-19T03:17:23.204Z,1009.07
2022-08-19T03:18:23.452Z,1009.03
2022-08-19T03:19:23.188Z,1009.05
2022-08-19T03:20:23.178Z,1009.01
2022-08-19T03:21:23.163Z,1009.02
2022-08-19T03:22:23.193Z,1009.03
2022-08-19T03:23:23.145Z,1008.98
2022-08-19T03:24:23.140Z,1009.08
2022-08-19T03:25:23.112Z,1009.01
2022-08-19T03:26:23.124Z,1009.00
2022-08-19T03:27:23.105Z,1009.00
2022-08-19T03:28:23.111Z,1009.05
2022-08-19T03:29:30.814Z,1009.03
2022-08-19T03:30:24.060Z,1009.06
2022-08-19T03:31:44.390Z,1009.04
2022-08-19T03:32:32.551Z,1009.05
2022-08-19T03:33:24.947Z,1009.09
2022-08-19T03:34:23.021Z,1009.10
2022-08-19T03:35:23.020Z,1009.13
2022-08-19T03:36:22.985Z,1009.12
2022-08-19T03:37:23.013Z,1009.16
2022-08-19T03:38:22.986Z,1009.15
2022-08-19T03:39:22.977Z,1009.18
2022-08-19T03:40:22.935Z,1009.13
2022-08-19T03:41:22.941Z,1009.14
2022-08-19T03:42:32.734Z,1009.12
2022-08-19T03:43:23.969Z,1009.12
2022-08-19T03:44:22.910Z,1009.15
2022-08-19T03:45:23.009Z,1009.15
2022-08-19T03:46:22.886Z,1009.14
2022-08-19T03:47:22.897Z,1009.22
2022-08-19T03:48:22.861Z,1009.14
2022-08-19T03:49:27.098Z,1009.18
2022-08-19T03:50:23.842Z,1009.10
2022-08-19T03:51:30.843Z,1009.13
2022-08-19T03:52:23.858Z,1009.14
2022-08-19T03:53:22.804Z,1009.08
2022-08-19T03:54:22.801Z,1009.08
2022-08-19T03:55:22.785Z,1009.05
2022-08-19T03:56:22.814Z,1009.06
2022-08-19T03:57:31.812Z,1009.09
2022-08-19T03:58:23.768Z,1009.09
2022-08-19T03:59:22.796Z,1009.08
2022-08-19T04:00:22.734Z,1009.11
2022-08-19T04:01:22.749Z,1009.10
2022-08-19T04:02:23.745Z,1009.07
2022-08-19T04:03:22.695Z,1009.08
2022-08-19T04:04:22.692Z,1009.11
2022-08-19T04:05:24.714Z,1009.09
2022-08-19T04:06:23.675Z,1009.11
2022-08-19T04:07:24.128Z,1009.10
2022-08-19T04:08:22.680Z,1009.12
2022-08-19T04:09:22.651Z,1009.15
2022-08-19T04:10:22.648Z,1009.20
2022-08-19T04:11:22.619Z,1009.16
2022-08-19T04:12:23.623Z,1009.19
2022-08-19T04:13:22.577Z,1009.18
2022-08-19T04:14:22.627Z,1009.17
2022-08-19T04:15:22.585Z,1009.13
2022-08-19T04:16:22.608Z,1009.14
2022-08-19T04:17:23.576Z,1009.13
2022-08-19T04:18:22.557Z,1009.10
2022-08-19T04:19:22.558Z,1009.10
2022-08-19T04:20:22.529Z,1009.11
2022-08-19T04:21:22.512Z,1009.16
2022-08-19T04:22:22.491Z,1009.13
2022-08-19T04:23:22.469Z,1009.14
2022-08-19T04:24:22.475Z,1009.18
2022-08-19T04:25:22.497Z,1009.18
2022-08-19T04:26:22.462Z,1009.19
2022-08-19T04:27:22.425Z,1009.18
2022-08-19T04:28:22.422Z,1009.16
2022-08-19T04:29:22.408Z,1009.15
2022-08-19T04:30:22.400Z,1009.13
2022-08-19T04:31:22.443Z,1009.16
2022-08-19T04:32:22.380Z,1009.13
2022-08-19T04:33:26.509Z,1009.05
2022-08-19T04:34:23.421Z,1009.11
2022-08-19T04:35:24.922Z,1009.09
2022-08-19T04:36:22.346Z,1009.11
2022-08-19T04:37:22.353Z,1009.14
2022-08-19T04:38:22.324Z,1009.17
2022-08-19T04:39:22.317Z,1009.17
2022-08-19T04:40:22.304Z,1009.18
2022-08-19T04:41:22.275Z,1009.16
2022-08-19T04:42:22.306Z,1009.17
2022-08-19T04:43:23.251Z,1009.19
2022-08-19T04:44:22.254Z,1009.20
2022-08-19T04:45:23.008Z,1009.19
2022-08-19T04:46:38.136Z,1009.21
2022-08-19T04:47:48.346Z,1009.23
2022-08-19T04:48:27.007Z,1009.26
2022-08-19T04:49:22.187Z,1009.26
2022-08-19T04:50:22.213Z,1009.26
2022-08-19T04:51:22.172Z,1009.30
2022-08-19T04:52:22.206Z,1009.32
2022-08-19T04:53:22.178Z,1009.30
2022-08-19T04:54:37.628Z,1009.29
2022-08-19T04:55:23.117Z,1009.37
2022-08-19T04:56:22.133Z,1009.31
2022-08-19T04:57:22.100Z,1009.37
2022-08-19T04:58:22.103Z,1009.38
2022-08-19T04:59:22.083Z,1009.38
2022-08-19T05:00:22.099Z,1009.43
2022-08-19T05:01:22.089Z,1009.47
2022-08-19T05:02:22.048Z,1009.49
2022-08-19T05:03:22.053Z,1009.49
2022-08-19T05:04:22.022Z,1009.53
2022-08-19T05:05:22.037Z,1009.55
2022-08-19T05:06:22.055Z,1009.58
2022-08-19T05:07:21.983Z,1009.56
2022-08-19T05:08:30.746Z,1009.65
2022-08-19T05:09:22.969Z,1009.57
2022-08-19T05:10:21.975Z,1009.60
2022-08-19T05:11:26.251Z,1009.66
2022-08-19T05:12:21.983Z,1009.65
2022-08-19T05:13:21.937Z,1009.65
2022-08-19T05:14:21.918Z,1009.66
2022-08-19T05:15:21.901Z,1009.64
2022-08-19T05:16:21.887Z,1009.65
2022-08-19T05:17:27.731Z,1009.66
2022-08-19T05:18:22.888Z,1009.64
2022-08-19T05:19:21.850Z,1009.67
2022-08-19T05:20:22.007Z,1009.68
2022-08-19T05:21:21.839Z,1009.73
2022-08-19T05:22:21.861Z,1009.72
2022-08-19T05:23:22.988Z,1009.80
2022-08-19T05:24:21.828Z,1009.84
2022-08-19T05:25:21.802Z,1009.79
2022-08-19T05:26:21.814Z,1009.77
2022-08-19T05:27:21.784Z,1009.80
2022-08-19T05:28:21.760Z,1009.80
2022-08-19T05:29:22.403Z,1009.83
2022-08-19T05:30:33.583Z,1009.76
2022-08-19T05:31:22.745Z,1009.80
2022-08-19T05:32:21.741Z,1009.81
2022-08-19T05:33:21.729Z,1009.80
2022-08-19T05:34:21.691Z,1009.82
2022-08-19T05:35:21.671Z,1009.78
2022-08-19T05:36:21.691Z,1009.80
2022-08-19T05:37:21.660Z,1009.78
2022-08-19T05:38:21.662Z,1009.78
2022-08-19T05:39:21.634Z,1009.77
2022-08-19T05:40:21.663Z,1009.80
2022-08-19T05:41:21.644Z,1009.73
2022-08-19T05:42:21.622Z,1009.72
2022-08-19T05:43:21.604Z,1009.77
2022-08-19T05:44:21.581Z,1009.79
2022-08-19T05:45:21.575Z,1009.80
2022-08-19T05:46:27.780Z,1009.82
2022-08-19T05:47:22.594Z,1009.74
2022-08-19T05:48:21.537Z,1009.76
2022-08-19T05:49:21.523Z,1009.78
2022-08-19T05:50:21.534Z,1009.78
2022-08-19T05:51:21.515Z,1009.80
2022-08-19T05:52:25.580Z,1009.80
2022-08-19T05:53:21.498Z,1009.82
2022-08-19T05:54:21.466Z,1009.80
2022-08-19T05:55:21.471Z,1009.86
2022-08-19T05:56:21.493Z,1009.90
2022-08-19T05:57:21.447Z,1009.89
2022-08-19T05:58:23.139Z,1009.91
2022-08-19T05:59:21.433Z,1009.87
2022-08-19T06:00:24.579Z,1009.91
2022-08-19T06:01:21.428Z,1009.87
2022-08-19T06:02:21.462Z,1009.86
2022-08-19T06:03:21.368Z,1009.81
2022-08-19T06:04:21.369Z,1009.80
2022-08-19T06:05:21.365Z,1009.79
2022-08-19T06:06:21.360Z,1009.81
2022-08-19T06:07:21.415Z,1009.77
2022-08-19T06:08:34.304Z,1009.75
2022-08-19T06:09:22.322Z,1009.78
2022-08-19T06:10:21.327Z,1009.73
2022-08-19T06:11:21.279Z,1009.69
2022-08-19T06:12:21.263Z,1009.70
2022-08-19T06:13:21.291Z,1009.69
2022-08-19T06:14:21.255Z,1009.65
2022-08-19T06:15:22.272Z,1009.72
2022-08-19T06:16:21.220Z,1009.75
2022-08-19T06:17:21.224Z,1009.72
2022-08-19T06:18:21.198Z,1009.71
2022-08-19T06:19:21.195Z,1009.71
2022-08-19T06:20:39.818Z,1009.71
2022-08-19T06:21:22.171Z,1009.65
2022-08-19T06:22:21.216Z,1009.72
2022-08-19T06:23:21.138Z,1009.65
2022-08-19T06:24:21.163Z,1009.57
2022-08-19T06:25:21.141Z,1009.62
2022-08-19T06:26:21.111Z,1009.62
2022-08-19T06:27:21.091Z,1009.60
2022-08-19T06:28:21.594Z,1009.64
2022-08-19T06:29:23.733Z,1009.65
2022-08-19T06:30:21.119Z,1009.68
2022-08-19T06:31:21.058Z,1009.71
2022-08-19T06:32:21.028Z,1009.70
2022-08-19T06:33:21.040Z,1009.68
2022-08-19T06:34:21.053Z,1009.71
2022-08-19T06:35:21.014Z,1009.71
2022-08-19T06:36:21.025Z,1009.69
2022-08-19T06:37:20.980Z,1009.72
2022-08-19T06:38:21.008Z,1009.65
2022-08-19T06:39:20.978Z,1009.65
2022-08-19T06:40:21.071Z,1009.62
2022-08-19T06:41:20.954Z,1009.65
2022-08-19T06:42:21.698Z,1009.68
2022-08-19T06:43:20.922Z,1009.67
2022-08-19T06:44:21.940Z,1009.65
2022-08-19T06:45:20.910Z,1009.65
2022-08-19T06:46:20.922Z,1009.69
2022-08-19T06:47:23.787Z,1009.66
2022-08-19T06:48:21.874Z,1009.72
2022-08-19T06:49:20.870Z,1009.70
2022-08-19T06:50:20.863Z,1009.69
2022-08-19T06:51:20.885Z,1009.72
2022-08-19T06:52:20.834Z,1009.69
2022-08-19T06:53:20.821Z,1009.72
2022-08-19T06:54:20.800Z,1009.74
2022-08-19T06:55:20.812Z,1009.72
2022-08-19T06:56:20.788Z,1009.70
2022-08-19T06:57:20.778Z,1009.74
2022-08-19T06:58:20.772Z,1009.72
2022-08-19T06:59:20.746Z,1009.74
2022-08-19T07:00:20.793Z,1009.79
2022-08-19T07:01:20.734Z,1009.79
2022-08-19T07:02:20.724Z,1009.81
2022-08-19T07:03:20.721Z,1009.80
2022-08-19T07:04:20.712Z,1009.77
2022-08-19T07:05:20.707Z,1009.76
2022-08-19T07:06:43.158Z,1009.82
2022-08-19T07:07:22.009Z,1009.78
2022-08-19T07:08:20.689Z,1009.85
2022-08-19T07:09:20.656Z,1009.80
2022-08-19T07:10:20.667Z,1009.88
2022-08-19T07:11:20.627Z,1009.85
2022-08-19T07:12:20.668Z,1009.89
2022-08-19T07:13:20.613Z,1009.92
2022-08-19T07:14:20.601Z,1009.87
2022-08-19T07:15:20.556Z,1009.87
2022-08-19T07:16:21.693Z,1009.82
2022-08-19T07:17:21.577Z,1009.81
2022-08-19T07:18:20.536Z,1009.86
2022-08-19T07:19:20.527Z,1009.85
2022-08-19T07:20:20.523Z,1009.85
2022-08-19T07:21:20.504Z,1009.81
2022-08-19T07:22:20.558Z,1009.85
2022-08-19T07:23:20.517Z,1009.87
2022-08-19T07:24:20.471Z,1009.91
2022-08-19T07:25:20.548Z,1009.92
2022-08-19T07:26:21.466Z,1009.95
2022-08-19T07:27:25.107Z,1009.93
2022-08-19T07:28:24.292Z,1009.89
2022-08-19T07:29:20.412Z,1009.94
2022-08-19T07:30:20.408Z,1009.97
2022-08-19T07:31:23.080Z,1009.94
2022-08-19T07:32:20.379Z,1010.01
2022-08-19T07:33:20.419Z,1009.99
2022-08-19T07:34:20.382Z,1010.01
2022-08-19T07:35:20.504Z,1010.00
2022-08-19T07:36:20.381Z,1009.96
2022-08-19T07:37:20.328Z,1009.97
2022-08-19T07:38:20.351Z,1010.08
2022-08-19T07:39:20.301Z,1010.03
2022-08-19T07:40:20.327Z,1010.02
2022-08-19T07:41:20.284Z,1009.99
2022-08-19T07:42:20.283Z,1009.99
2022-08-19T07:43:20.267Z,1009.99
2022-08-19T07:44:20.295Z,1010.03
2022-08-19T07:45:20.308Z,1010.00
2022-08-19T07:46:20.246Z,1010.05
2022-08-19T07:47:48.734Z,1010.07
2022-08-19T07:48:21.206Z,1010.12
2022-08-19T07:49:20.229Z,1010.08
2022-08-19T07:50:20.279Z,1010.09
2022-08-19T07:51:36.146Z,1010.13
2022-08-19T07:52:21.164Z,1010.12
2022-08-19T07:53:20.163Z,1010.15
2022-08-19T07:54:20.166Z,1010.16
2022-08-19T07:55:43.256Z,1010.19
2022-08-19T07:56:21.117Z,1010.23
2022-08-19T07:57:20.129Z,1010.23
2022-08-19T07:58:20.097Z,1010.20
2022-08-19T07:59:20.101Z,1010.25
2022-08-19T08:00:23.195Z,1010.22
2022-08-19T08:01:20.145Z,1010.23
2022-08-19T08:02:20.070Z,1010.23
2022-08-19T08:03:20.081Z,1010.37
2022-08-19T08:04:20.031Z,1010.25
2022-08-19T08:05:20.030Z,1010.28
2022-08-19T08:06:20.012Z,1010.35
2022-08-19T08:07:20.001Z,1010.34
2022-08-19T08:08:19.989Z,1010.37
2022-08-19T08:10:20.794Z,1010.35
2022-08-19T08:11:20.700Z,1010.39
2022-08-19T08:12:33.651Z,1010.38
2022-08-19T08:13:20.985Z,1010.41
2022-08-19T08:14:29.043Z,1010.41
2022-08-19T08:15:20.936Z,1010.44
2022-08-19T08:16:19.933Z,1010.39
2022-08-19T08:17:40.975Z,1010.42
2022-08-19T08:18:20.896Z,1010.40
2022-08-19T08:19:25.785Z,1010.48
2022-08-19T08:20:20.868Z,1010.41
2022-08-19T08:21:19.858Z,1010.42
2022-08-19T08:22:19.876Z,1010.42
2022-08-19T08:23:19.849Z,1010.39
2022-08-19T08:24:19.820Z,1010.38
2022-08-19T08:25:19.806Z,1010.40
2022-08-19T08:26:19.839Z,1010.41
2022-08-19T08:27:21.684Z,1010.42
2022-08-19T08:28:20.780Z,1010.44
2022-08-19T08:29:19.759Z,1010.47
2022-08-19T08:30:19.772Z,1010.51
2022-08-19T08:31:19.755Z,1010.45
2022-08-19T08:32:19.730Z,1010.47
2022-08-19T08:33:19.738Z,1010.50
2022-08-19T08:34:20.726Z,1010.50
2022-08-19T08:35:19.712Z,1010.53
2022-08-19T08:36:19.702Z,1010.54
2022-08-19T08:37:19.692Z,1010.55
2022-08-19T08:38:19.674Z,1010.55
2022-08-19T08:39:19.682Z,1010.57
2022-08-19T08:40:19.700Z,1010.56
2022-08-19T08:41:19.635Z,1010.56
2022-08-19T08:42:19.621Z,1010.57
2022-08-19T08:43:19.658Z,1010.61
2022-08-19T08:44:20.216Z,1010.59
2022-08-19T08:45:19.590Z,1010.63
2022-08-19T08:46:30.669Z,1010.60
2022-08-19T08:47:20.563Z,1010.61
2022-08-19T08:48:23.923Z,1010.64
2022-08-19T08:49:19.567Z,1010.59
2022-08-19T08:50:19.581Z,1010.55
2022-08-19T08:51:20.435Z,1010.47
2022-08-19T08:52:19.522Z,1010.45
2022-08-19T08:53:29.665Z,1010.47
2022-08-19T08:54:20.594Z,1010.45
2022-08-19T08:55:20.337Z,1010.47
2022-08-19T08:56:19.490Z,1010.42
2022-08-19T08:57:19.452Z,1010.47
2022-08-19T08:58:19.438Z,1010.45
2022-08-19T08:59:19.439Z,1010.50
2022-08-19T09:00:19.574Z,1010.50
2022-08-19T09:01:19.556Z,1010.48
2022-08-19T09:02:19.412Z,1010.44
2022-08-19T09:03:19.391Z,1010.52
2022-08-19T09:04:19.395Z,1010.51
2022-08-19T09:05:19.380Z,1010.52
2022-08-19T09:06:19.384Z,1010.51
2022-08-19T09:07:35.231Z,1010.47
2022-08-19T09:08:20.338Z,1010.47
2022-08-19T09:09:19.685Z,1010.52
2022-08-19T09:10:19.306Z,1010.42
2022-08-19T09:11:41.994Z,1010.44
2022-08-19T09:12:20.318Z,1010.41
2022-08-19T09:13:20.285Z,1010.32
2022-08-19T09:14:47.288Z,1010.41
2022-08-19T09:15:20.295Z,1010.40
2022-08-19T09:16:21.116Z,1010.40
2022-08-19T09:17:19.474Z,1010.42
2022-08-19T09:18:19.641Z,1010.39
2022-08-19T09:19:22.441Z,1010.46
2022-08-19T09:20:19.197Z,1010.44
2022-08-19T09:21:21.869Z,1010.47
2022-08-19T09:22:25.409Z,1010.46
2022-08-19T09:23:26.816Z,1010.43
2022-08-19T09:24:20.161Z,1010.46
2022-08-19T09:25:27.090Z,1010.48
2022-08-19T09:26:20.148Z,1010.44
2022-08-19T09:27:19.128Z,1010.42
2022-08-19T09:28:22.567Z,1010.47
2022-08-19T09:29:20.102Z,1010.44
2022-08-19T09:30:19.129Z,1010.43
2022-08-19T09:31:19.126Z,1010.38
2022-08-19T09:32:26.664Z,1010.44
2022-08-19T09:33:20.106Z,1010.46
2022-08-19T09:34:21.183Z,1010.39
2022-08-19T09:35:19.055Z,1010.42
2022-08-19T09:36:21.759Z,1010.47
2022-08-19T09:37:20.024Z,1010.47
2022-08-19T09:38:19.022Z,1010.49
2022-08-19T09:39:18.986Z,1010.45
2022-08-19T09:40:19.096Z,1010.44
2022-08-19T09:41:18.995Z,1010.52
2022-08-19T09:42:20.308Z,1010.40
2022-08-19T09:43:33.215Z,1010.40
2022-08-19T09:44:19.937Z,1010.43
2022-08-19T09:45:18.919Z,1010.41
2022-08-19T09:46:18.951Z,1010.38
2022-08-19T09:47:20.092Z,1010.39
2022-08-19T09:48:19.150Z,1010.36
2022-08-19T09:49:18.883Z,1010.43
2022-08-19T09:50:18.884Z,1010.41
2022-08-19T09:51:18.899Z,1010.39
2022-08-19T09:52:18.889Z,1010.39
2022-08-19T09:53:18.869Z,1010.40
2022-08-19T09:54:23.451Z,1010.36
2022-08-19T09:55:19.832Z,1010.35
2022-08-19T09:56:18.821Z,1010.40
2022-08-19T09:57:18.806Z,1010.40
2022-08-19T09:58:20.531Z,1010.39
2022-08-19T09:59:19.805Z,1010.39
2022-08-19T10:00:18.766Z,1010.42
2022-08-19T10:01:18.788Z,1010.40
2022-08-19T10:02:22.188Z,1010.44
2022-08-19T10:03:18.774Z,1010.38
2022-08-19T10:04:20.255Z,1010.41
2022-08-19T10:05:26.616Z,1010.40
2022-08-19T10:06:19.752Z,1010.44
2022-08-19T10:07:19.743Z,1010.42
2022-08-19T10:08:18.676Z,1010.40
2022-08-19T10:09:18.676Z,1010.39
2022-08-19T10:10:19.655Z,1010.38
2022-08-19T10:11:27.765Z,1010.37
2022-08-19T10:12:20.168Z,1010.41
2022-08-19T10:13:18.639Z,1010.38
2022-08-19T10:14:18.608Z,1010.38
2022-08-19T10:15:18.654Z,1010.38
2022-08-19T10:16:19.599Z,1010.41
2022-08-19T10:17:20.773Z,1010.41
2022-08-19T10:18:18.585Z,1010.40
2022-08-19T10:19:25.710Z,1010.38
2022-08-19T10:20:19.574Z,1010.34
2022-08-19T10:21:18.537Z,1010.38
2022-08-19T10:22:18.511Z,1010.31
2022-08-19T10:23:18.504Z,1010.31
2022-08-19T10:24:18.588Z,1010.33
2022-08-19T10:25:18.786Z,1010.27
2022-08-19T10:26:18.532Z,1010.27
2022-08-19T10:27:18.629Z,1010.33
2022-08-19T10:28:19.279Z,1010.29
2022-08-19T10:29:32.748Z,1010.27
2022-08-19T10:30:20.152Z,1010.24
2022-08-19T10:31:18.426Z,1010.20
2022-08-19T10:32:18.426Z,1010.16
2022-08-19T10:33:38.608Z,1010.22
2022-08-19T10:34:27.507Z,1010.25
2022-08-19T10:35:22.094Z,1010.25
2022-08-19T10:36:18.373Z,1010.20
2022-08-19T10:37:28.860Z,1010.23
2022-08-19T10:38:19.358Z,1010.19
2022-08-19T10:39:19.359Z,1010.11
2022-08-19T10:40:18.415Z,1010.16
2022-08-19T10:41:18.367Z,1010.09
2022-08-19T10:42:18.287Z,1010.10
2022-08-19T10:43:18.300Z,1010.02
2022-08-19T10:44:18.273Z,1010.07
2022-08-19T10:45:18.273Z,1010.12
2022-08-19T10:46:18.303Z,1010.15
2022-08-19T10:47:25.852Z,1010.08
2022-08-19T10:48:19.562Z,1010.11
2022-08-19T10:49:18.223Z,1010.17
2022-08-19T10:50:18.209Z,1010.20
2022-08-19T10:51:22.790Z,1010.19
2022-08-19T10:52:18.641Z,1010.14
2022-08-19T10:53:18.192Z,1010.14
2022-08-19T10:54:29.545Z,1010.16
2022-08-19T10:55:19.166Z,1010.17
2022-08-19T10:56:18.460Z,1010.08
2022-08-19T10:57:18.173Z,1010.11
2022-08-19T10:58:18.144Z,1010.05
2022-08-19T10:59:18.126Z,1010.09
2022-08-19T11:00:18.094Z,1010.09
2022-08-19T11:01:18.150Z,1010.12
2022-08-19T11:02:18.070Z,1010.21
2022-08-19T11:03:18.164Z,1010.10
2022-08-19T11:04:18.074Z,1010.14
2022-08-19T11:05:18.066Z,1010.12
2022-08-19T11:06:18.031Z,1010.07
2022-08-19T11:07:18.092Z,1010.12
2022-08-19T11:08:23.012Z,1010.13
2022-08-19T11:09:19.028Z,1010.08
2022-08-19T11:10:21.366Z,1010.14
2022-08-19T11:11:17.983Z,1010.11
2022-08-19T11:12:18.020Z,1010.12
2022-08-19T11:13:17.966Z,1010.15
2022-08-19T11:14:17.999Z,1010.09
2022-08-19T11:15:17.956Z,1010.12
2022-08-19T11:16:17.927Z,1010.17
2022-08-19T11:17:17.919Z,1010.13
2022-08-19T11:18:17.911Z,1010.15
2022-08-19T11:19:17.895Z,1010.11
2022-08-19T11:20:17.949Z,1010.14
2022-08-19T11:21:17.872Z,1010.15
2022-08-19T11:22:19.538Z,1010.07
2022-08-19T11:23:17.853Z,1010.12
2022-08-19T11:24:17.838Z,1010.09
2022-08-19T11:25:17.859Z,1010.11
2022-08-19T11:26:17.806Z,1010.02
2022-08-19T11:27:17.827Z,1010.09
2022-08-19T11:28:17.815Z,1010.04
2022-08-19T11:29:17.784Z,1010.05
2022-08-19T11:30:17.766Z,1010.02
2022-08-19T11:31:17.770Z,1010.01
2022-08-19T11:32:17.754Z,1009.97
2022-08-19T11:33:17.800Z,1009.99
2022-08-19T11:34:17.726Z,1010.02
2022-08-19T11:35:17.711Z,1009.95
2022-08-19T11:36:17.705Z,1009.94
2022-08-19T11:37:17.745Z,1009.95
2022-08-19T11:38:17.696Z,1009.95
2022-08-19T11:39:17.713Z,1010.05
2022-08-19T11:40:18.511Z,1010.02
2022-08-19T11:41:17.656Z,1010.01
2022-08-19T11:42:17.874Z,1009.95
2022-08-19T11:43:17.661Z,1009.99
2022-08-19T11:44:17.679Z,1009.98
2022-08-19T11:45:17.618Z,1009.96
2022-08-19T11:46:17.614Z,1009.96
2022-08-19T11:47:17.612Z,1009.97
2022-08-19T11:48:17.606Z,1009.94
2022-08-19T11:49:17.566Z,1009.94
2022-08-19T11:50:17.604Z,1009.95
2022-08-19T11:51:17.738Z,1009.93
2022-08-19T11:52:17.555Z,1009.92
2022-08-19T11:53:17.555Z,1009.91
2022-08-19T11:54:17.564Z,1009.85
2022-08-19T11:55:17.516Z,1009.88
2022-08-19T11:56:17.490Z,1009.83
2022-08-19T11:57:17.603Z,1009.84
2022-08-19T11:58:18.909Z,1009.82
2022-08-19T11:59:17.545Z,1009.84
2022-08-19T12:00:17.481Z,1009.87
2022-08-19T12:01:17.483Z,1009.91
2022-08-19T12:02:17.442Z,1009.96
2022-08-19T12:03:17.445Z,1009.93
2022-08-19T12:04:17.429Z,1009.90
2022-08-19T12:05:17.408Z,1009.93
2022-08-19T12:06:17.399Z,1009.86